Time;durP1;ratioP1;P1;durP2;ratioP2;P2;SDS_P1;SDS_P2;PMS_P1;PMS_P2;Temp;Humidity;BMP_temperature;BMP_pressure;BME280_temperature;BME280_humidity;BME280_pressure;Samples;Min_cycle;Max_cycle;Signal;HPM_P1;HPM_P2
2024/02/03 00:01:37;;;;;;;3.87;1.83;;;;;;;;;;6183722;28;20297;-59
2024/02/03 00:04:41;;;;;;;7.83;2.30;;;;;;;;;;6183666;28;20293;-58
2024/02/03 00:07:46;;;;;;;9.25;2.35;;;;;;;;;;6184864;28;20313;-59
2024/02/03 00:10:50;;;;;;;4.70;2.00;;;;;;;;;;6184400;28;20293;-58
2024/02/03 00:13:55;;;;;;;6.27;1.93;;;;;;;;;;6186357;28;20302;-57
2024/02/03 00:16:59;;;;;;;7.73;2.43;;;;;;;;;;6189005;28;20289;-59
2024/02/03 00:20:03;;;;;;;3.10;1.80;;;;;;;;;;6189534;28;20481;-56
2024/02/03 00:23:09;;;;;;;6.00;1.83;;;;;;;;;;6188193;28;20302;-58
2024/02/03 00:26:13;;;;;;;8.93;2.03;;;;;;;;;;6186655;28;20301;-57
2024/02/03 00:29:17;;;;;;;4.80;1.90;;;;;;;;;;6185453;28;20293;-58
2024/02/03 00:32:21;;;;;;;9.97;2.30;;;;;;;;;;6170798;28;20298;-58
2024/02/03 00:35:25;;;;;;;4.17;1.80;;;;;;;;;;6170177;28;20296;-57
2024/02/03 00:38:30;;;;;;;11.65;1.70;;;;;;;;;;6188476;28;20297;-57
2024/02/03 00:41:34;;;;;;;12.45;2.10;;;;;;;;;;6187394;28;20607;-58
2024/02/03 00:44:38;;;;;;;5.87;1.80;;;;;;;;;;6187330;28;20285;-58
2024/02/03 00:47:42;;;;;;;4.17;1.70;;;;;;;;;;6188703;28;20309;-58
2024/02/03 00:50:46;;;;;;;11.02;1.98;;;;;;;;;;6187823;28;20301;-57
2024/02/03 00:53:52;;;;;;;5.27;1.70;;;;;;;;;;6187159;28;20571;-57
2024/02/03 00:56:56;;;;;;;9.57;2.33;;;;;;;;;;6178754;28;20309;-57
2024/02/03 01:00:02;;;;;;;4.10;1.70;;;;;;;;;;6187793;28;20298;-58
2024/02/03 01:03:06;;;;;;;5.70;1.70;;;;;;;;;;6187057;28;20289;-57
2024/02/03 01:06:10;;;;;;;5.83;1.60;;;;;;;;;;6187522;28;20302;-58
2024/02/03 01:09:17;;;;;;;9.80;2.17;;;;;;;;;;6187182;28;20289;-58
2024/02/03 01:12:22;;;;;;;4.33;1.80;;;;;;;;;;6187251;28;20531;-57
2024/02/03 01:15:26;;;;;;;5.73;1.50;;;;;;;;;;6187272;28;20302;-58
2024/02/03 01:18:30;;;;;;;7.32;1.80;;;;;;;;;;6187214;28;20298;-59
2024/02/03 01:21:34;;;;;;;3.90;1.38;;;;;;;;;;6181727;28;20310;-58
2024/02/03 01:24:39;;;;;;;4.03;1.50;;;;;;;;;;6169277;28;20433;-59
2024/02/03 01:27:44;;;;;;;5.05;1.70;;;;;;;;;;6187467;28;20297;-57
2024/02/03 01:30:47;;;;;;;7.90;1.77;;;;;;;;;;6185427;28;20298;-58
2024/02/03 01:33:51;;;;;;;4.00;1.50;;;;;;;;;;6184671;28;20562;-58
2024/02/03 01:36:56;;;;;;;6.05;1.58;;;;;;;;;;6182205;28;20301;-58
2024/02/03 01:40:01;;;;;;;4.23;1.60;;;;;;;;;;6186769;28;20581;-58
2024/02/03 01:43:08;;;;;;;6.57;1.47;;;;;;;;;;6186997;28;20294;-58
2024/02/03 01:46:13;;;;;;;2.35;1.50;;;;;;;;;;6185854;28;20306;-58
2024/02/03 01:49:18;;;;;;;3.03;1.47;;;;;;;;;;6185527;28;20301;-59
2024/02/03 01:52:25;;;;;;;6.30;1.60;;;;;;;;;;6176894;28;20294;-58
2024/02/03 01:55:30;;;;;;;4.97;1.77;;;;;;;;;;6185359;28;20455;-58
2024/02/03 01:58:34;;;;;;;4.82;1.75;;;;;;;;;;6186760;28;20309;-57
2024/02/03 02:01:38;;;;;;;2.93;1.70;;;;;;;;;;6185501;28;20359;-58
2024/02/03 02:04:42;;;;;;;7.67;1.70;;;;;;;;;;6185254;28;20297;-58
2024/02/03 02:07:46;;;;;;;5.70;1.70;;;;;;;;;;6187232;28;20298;-58
2024/02/03 02:10:52;;;;;;;6.22;2.10;;;;;;;;;;6185931;28;20298;-58
2024/02/03 02:13:56;;;;;;;4.20;1.65;;;;;;;;;;6185364;28;20293;-57
2024/02/03 02:17:00;;;;;;;4.03;1.58;;;;;;;;;;6185029;28;20454;-58
2024/02/03 02:20:07;;;;;;;11.07;1.60;;;;;;;;;;6185599;28;20292;-57
2024/02/03 02:23:11;;;;;;;3.60;1.52;;;;;;;;;;6186007;28;20574;-59
2024/02/03 02:26:15;;;;;;;3.23;1.60;;;;;;;;;;6185563;28;20302;-57
2024/02/03 02:29:19;;;;;;;3.85;1.50;;;;;;;;;;6168438;28;20318;-57
2024/02/03 02:32:23;;;;;;;10.07;1.70;;;;;;;;;;6186585;28;20445;-56
2024/02/03 02:35:29;;;;;;;4.65;1.58;;;;;;;;;;6176641;28;20550;-57
2024/02/03 02:38:33;;;;;;;5.07;1.50;;;;;;;;;;6185656;28;20301;-58
2024/02/03 02:41:37;;;;;;;3.50;1.60;;;;;;;;;;6185006;28;20301;-58
2024/02/03 02:44:41;;;;;;;2.30;1.35;;;;;;;;;;6185710;28;20566;-58
2024/02/03 02:47:45;;;;;;;2.00;1.52;;;;;;;;;;6186515;28;20314;-58
2024/02/03 02:50:51;;;;;;;2.08;1.60;;;;;;;;;;6186470;28;20298;-57
2024/02/03 02:53:55;;;;;;;7.65;1.70;;;;;;;;;;6185657;28;20309;-58
2024/02/03 02:56:59;;;;;;;4.67;1.70;;;;;;;;;;6166612;28;20289;-58
2024/02/03 03:00:03;;;;;;;1.83;1.27;;;;;;;;;;6184715;28;20582;-58
2024/02/03 03:03:07;;;;;;;4.93;1.50;;;;;;;;;;6184715;28;20313;-58
2024/02/03 03:06:13;;;;;;;4.95;1.38;;;;;;;;;;6185001;28;20468;-58
2024/02/03 03:09:17;;;;;;;3.45;1.48;;;;;;;;;;6184747;28;20380;-58
2024/02/03 03:12:21;;;;;;;4.72;1.50;;;;;;;;;;6184211;28;20294;-59
2024/02/03 03:15:25;;;;;;;4.38;1.40;;;;;;;;;;6183649;28;20298;-59
2024/02/03 03:18:29;;;;;;;2.58;1.55;;;;;;;;;;6185046;28;20298;-58
2024/02/03 03:21:35;;;;;;;8.93;1.80;;;;;;;;;;6184254;28;20298;-57
2024/02/03 03:24:39;;;;;;;4.68;1.63;;;;;;;;;;6183866;28;20302;-58
2024/02/03 03:27:43;;;;;;;5.07;1.23;;;;;;;;;;6184455;28;20297;-56
2024/02/03 03:30:47;;;;;;;5.00;1.40;;;;;;;;;;6183583;28;20293;-58
2024/02/03 03:33:51;;;;;;;2.42;1.50;;;;;;;;;;6184792;28;20381;-58
2024/02/03 03:36:57;;;;;;;3.30;1.40;;;;;;;;;;6184293;28;20305;-58
2024/02/03 03:40:01;;;;;;;4.95;1.70;;;;;;;;;;6173986;28;20411;-58
2024/02/03 03:43:05;;;;;;;2.88;1.20;;;;;;;;;;6184087;28;20292;-58
2024/02/03 03:46:09;;;;;;;6.60;1.70;;;;;;;;;;6182750;28;20293;-58
2024/02/03 03:49:13;;;;;;;5.63;1.40;;;;;;;;;;6183829;28;20310;-58
2024/02/03 03:52:18;;;;;;;3.75;1.65;;;;;;;;;;6184372;28;20289;-58
2024/02/03 03:55:22;;;;;;;3.78;1.65;;;;;;;;;;6183650;28;20297;-58
2024/02/03 03:58:26;;;;;;;4.18;1.60;;;;;;;;;;6184747;28;20546;-57
2024/02/03 04:01:30;;;;;;;2.83;1.25;;;;;;;;;;6165276;28;20333;-58
2024/02/03 04:04:34;;;;;;;3.85;1.63;;;;;;;;;;6182454;28;20297;-58
2024/02/03 04:07:39;;;;;;;2.38;1.42;;;;;;;;;;6186839;28;20614;-60
2024/02/03 04:10:44;;;;;;;5.50;1.30;;;;;;;;;;6184373;28;20329;-57
2024/02/03 04:13:48;;;;;;;2.25;1.10;;;;;;;;;;6183881;28;20290;-58
2024/02/03 04:16:52;;;;;;;4.53;1.45;;;;;;;;;;6184048;28;20302;-57
2024/02/03 04:19:56;;;;;;;1.88;1.20;;;;;;;;;;6182899;28;20301;-57
2024/02/03 04:23:02;;;;;;;4.97;1.30;;;;;;;;;;6183472;28;20482;-58
2024/02/03 04:26:06;;;;;;;1.83;1.43;;;;;;;;;;6184008;28;20384;-56
2024/02/03 04:29:09;;;;;;;3.55;1.42;;;;;;;;;;6183350;28;20290;-58
2024/02/03 04:32:13;;;;;;;1.88;1.15;;;;;;;;;;6183633;28;20294;-58
2024/02/03 04:35:17;;;;;;;4.53;1.20;;;;;;;;;;6182879;28;20294;-57
2024/02/03 04:38:23;;;;;;;3.17;1.42;;;;;;;;;;6183463;28;20297;-57
2024/02/03 04:41:27;;;;;;;3.47;1.35;;;;;;;;;;6184030;28;20377;-57
2024/02/03 04:44:31;;;;;;;1.52;1.42;;;;;;;;;;6182658;28;20297;-56
2024/02/03 04:47:35;;;;;;;4.40;1.48;;;;;;;;;;6183844;28;20294;-57
2024/02/03 04:50:39;;;;;;;4.47;1.20;;;;;;;;;;6181877;28;20321;-57
2024/02/03 04:53:45;;;;;;;2.33;1.23;;;;;;;;;;6183684;28;20289;-56
2024/02/03 04:56:49;;;;;;;4.63;1.40;;;;;;;;;;6184256;28;20289;-57
2024/02/03 04:59:52;;;;;;;2.80;1.00;;;;;;;;;;6184879;28;20315;-58
2024/02/03 05:02:56;;;;;;;1.20;1.02;;;;;;;;;;6187697;28;20323;-57
2024/02/03 05:06:04;;;;;;;3.95;0.95;;;;;;;;;;6188179;28;20294;-56
2024/02/03 05:09:10;;;;;;;4.15;1.20;;;;;;;;;;6187789;28;20301;-56
2024/02/03 05:12:14;;;;;;;2.70;1.20;;;;;;;;;;6188052;28;20310;-59
2024/02/03 05:15:18;;;;;;;4.28;1.13;;;;;;;;;;6170312;28;20437;-58
2024/02/03 05:18:23;;;;;;;1.10;1.00;;;;;;;;;;6188271;28;20302;-58
2024/02/03 05:21:27;;;;;;;1.30;1.23;;;;;;;;;;6169719;28;20593;-56
2024/02/03 05:24:32;;;;;;;0.93;0.93;;;;;;;;;;6187380;28;20297;-58
2024/02/03 05:27:36;;;;;;;4.63;1.13;;;;;;;;;;6187685;28;20569;-58
2024/02/03 05:30:40;;;;;;;2.55;1.23;;;;;;;;;;6169127;28;20471;-57
2024/02/03 05:33:44;;;;;;;3.22;1.00;;;;;;;;;;6186975;28;20325;-58
2024/02/03 05:36:49;;;;;;;4.70;1.23;;;;;;;;;;6169282;28;20351;-57
2024/02/03 05:39:54;;;;;;;2.05;1.00;;;;;;;;;;6187481;28;20305;-58
2024/02/03 05:42:59;;;;;;;2.10;1.13;;;;;;;;;;6189074;28;20273;-58
2024/02/03 05:46:03;;;;;;;1.20;1.00;;;;;;;;;;6186881;28;20298;-57
2024/02/03 05:49:07;;;;;;;3.80;1.48;;;;;;;;;;6186542;28;20310;-57
2024/02/03 05:52:12;;;;;;;2.80;1.10;;;;;;;;;;6185486;28;20317;-58
2024/02/03 05:55:17;;;;;;;2.17;1.00;;;;;;;;;;6162576;28;20294;-58
2024/02/03 05:58:21;;;;;;;2.40;1.02;;;;;;;;;;6162081;28;20294;-58
2024/02/03 06:01:25;;;;;;;1.10;1.00;;;;;;;;;;6162707;29;20302;-56
2024/02/03 06:04:29;;;;;;;0.88;0.88;;;;;;;;;;6162046;29;20298;-57
2024/02/03 06:07:33;;;;;;;1.70;0.80;;;;;;;;;;6162821;28;20290;-58
2024/02/03 06:10:39;;;;;;;0.90;0.90;;;;;;;;;;6161289;28;20302;-58
2024/02/03 06:13:45;;;;;;;1.55;0.80;;;;;;;;;;6162547;28;20474;-58
2024/02/03 06:16:49;;;;;;;2.97;1.08;;;;;;;;;;6162338;28;20290;-58
2024/02/03 06:19:53;;;;;;;1.25;0.98;;;;;;;;;;6162238;28;20298;-57
2024/02/03 06:22:57;;;;;;;1.75;0.82;;;;;;;;;;6161888;28;20295;-58
2024/02/03 06:26:03;;;;;;;1.73;0.90;;;;;;;;;;6171749;28;20310;-58
2024/02/03 06:29:10;;;;;;;1.20;0.90;;;;;;;;;;6185507;28;20293;-58
2024/02/03 06:32:14;;;;;;;2.13;0.90;;;;;;;;;;6185917;28;20594;-56
2024/02/03 06:35:18;;;;;;;3.25;1.20;;;;;;;;;;6185836;28;20517;-56
2024/02/03 06:38:23;;;;;;;2.35;0.90;;;;;;;;;;6185893;28;20451;-58
2024/02/03 06:41:29;;;;;;;1.63;0.70;;;;;;;;;;6186193;28;20301;-58
2024/02/03 06:44:33;;;;;;;2.63;0.85;;;;;;;;;;6185476;28;20469;-58
2024/02/03 06:47:36;;;;;;;1.00;1.00;;;;;;;;;;6185915;28;20293;-57
2024/02/03 06:50:40;;;;;;;0.90;0.90;;;;;;;;;;6185463;28;20297;-57
2024/02/03 06:53:45;;;;;;;2.40;1.03;;;;;;;;;;6185638;28;20293;-57
2024/02/03 06:56:50;;;;;;;1.57;1.20;;;;;;;;;;6186165;28;20254;-57
2024/02/03 06:59:54;;;;;;;2.55;0.90;;;;;;;;;;6185214;28;20294;-59
2024/02/03 07:02:58;;;;;;;0.90;0.90;;;;;;;;;;6185529;28;20426;-60
2024/02/03 07:06:02;;;;;;;2.97;1.00;;;;;;;;;;6185747;28;20289;-58
2024/02/03 07:09:06;;;;;;;2.90;0.87;;;;;;;;;;6185199;28;20534;-58
2024/02/03 07:12:11;;;;;;;2.40;0.85;;;;;;;;;;6185591;28;20297;-58
2024/02/03 07:15:16;;;;;;;1.00;0.98;;;;;;;;;;6186814;28;20301;-58
2024/02/03 07:18:20;;;;;;;0.80;0.80;;;;;;;;;;6184504;28;20293;-61
2024/02/03 07:21:24;;;;;;;0.98;0.98;;;;;;;;;;6185368;28;20294;-57
2024/02/03 07:24:30;;;;;;;2.08;1.00;;;;;;;;;;6184038;28;20297;-57
2024/02/03 07:27:35;;;;;;;0.70;0.70;;;;;;;;;;6185342;28;20451;-57
2024/02/03 07:30:39;;;;;;;3.60;0.90;;;;;;;;;;6184956;28;20297;-56
2024/02/03 07:33:43;;;;;;;0.70;0.70;;;;;;;;;;6184682;28;20297;-58
2024/02/03 07:36:47;;;;;;;0.95;0.95;;;;;;;;;;6185059;28;20574;-58
2024/02/03 07:39:51;;;;;;;1.67;0.90;;;;;;;;;;6184847;28;20508;-57
2024/02/03 07:42:57;;;;;;;1.77;0.83;;;;;;;;;;6184873;28;20302;-58
2024/02/03 07:46:01;;;;;;;1.70;0.77;;;;;;;;;;6185996;28;20471;-58
2024/02/03 07:49:05;;;;;;;4.15;1.25;;;;;;;;;;6184182;28;20293;-59
2024/02/03 07:52:09;;;;;;;1.40;1.05;;;;;;;;;;6185014;28;20309;-59
2024/02/03 07:55:13;;;;;;;2.75;0.98;;;;;;;;;;6184122;28;20321;-58
2024/02/03 07:58:19;;;;;;;0.95;0.88;;;;;;;;;;6184274;28;20290;-58
2024/02/03 08:01:23;;;;;;;1.08;0.93;;;;;;;;;;6183788;28;20302;-58
2024/02/03 08:04:27;;;;;;;1.23;0.73;;;;;;;;;;6183590;28;20293;-59
2024/02/03 08:07:31;;;;;;;2.28;0.90;;;;;;;;;;6184785;28;20302;-59
2024/02/03 08:10:35;;;;;;;2.60;1.07;;;;;;;;;;6183714;28;20301;-58
2024/02/03 08:13:41;;;;;;;2.00;0.85;;;;;;;;;;6184043;28;20297;-59
2024/02/03 08:16:45;;;;;;;1.40;0.88;;;;;;;;;;6183872;28;20294;-59
2024/02/03 08:19:49;;;;;;;2.38;1.05;;;;;;;;;;6181224;28;20562;-60
2024/02/03 08:22:52;;;;;;;1.57;0.90;;;;;;;;;;6183832;28;20293;-59
2024/02/03 08:25:57;;;;;;;2.78;0.95;;;;;;;;;;6184081;28;20582;-59
2024/02/03 08:29:02;;;;;;;1.10;1.00;;;;;;;;;;6184098;28;20586;-57
2024/02/03 08:32:07;;;;;;;0.95;0.95;;;;;;;;;;6184088;28;20475;-59
2024/02/03 08:35:11;;;;;;;2.30;1.07;;;;;;;;;;6186125;28;20290;-58
2024/02/03 08:38:17;;;;;;;1.27;1.17;;;;;;;;;;6188399;28;20293;-58
2024/02/03 08:41:21;;;;;;;0.85;0.85;;;;;;;;;;6188907;28;20369;-59
2024/02/03 08:44:27;;;;;;;0.97;0.97;;;;;;;;;;6188255;28;20590;-59
2024/02/03 08:47:31;;;;;;;1.05;1.00;;;;;;;;;;6188707;28;20322;-59
2024/02/03 08:50:35;;;;;;;1.30;0.90;;;;;;;;;;6188374;28;20293;-59
2024/02/03 08:53:39;;;;;;;2.92;0.77;;;;;;;;;;6187054;28;20294;-57
2024/02/03 08:56:43;;;;;;;2.28;1.17;;;;;;;;;;6188289;28;20341;-59
2024/02/03 08:59:50;;;;;;;1.10;1.10;;;;;;;;;;6188139;28;20305;-57
2024/02/03 09:02:54;;;;;;;1.10;1.10;;;;;;;;;;6188251;28;20293;-59
2024/02/03 09:05:58;;;;;;;0.93;0.77;;;;;;;;;;6188618;28;20314;-59
2024/02/03 09:09:03;;;;;;;1.00;1.00;;;;;;;;;;6187640;28;20418;-58
2024/02/03 09:12:07;;;;;;;1.10;1.00;;;;;;;;;;6188049;28;20313;-59
2024/02/03 09:15:13;;;;;;;1.55;1.00;;;;;;;;;;6187633;28;20294;-57
2024/02/03 09:18:17;;;;;;;1.50;1.00;;;;;;;;;;6187435;28;20626;-59
2024/02/03 09:21:21;;;;;;;1.25;0.98;;;;;;;;;;6187424;28;20310;-57
2024/02/03 09:24:25;;;;;;;1.83;0.95;;;;;;;;;;6187245;28;20498;-57
2024/02/03 09:27:29;;;;;;;2.58;1.00;;;;;;;;;;6187702;28;20320;-59
2024/02/03 09:30:35;;;;;;;1.85;0.88;;;;;;;;;;6187126;28;20308;-59
2024/02/03 09:33:39;;;;;;;2.05;0.90;;;;;;;;;;6187258;28;20301;-57
2024/02/03 09:36:43;;;;;;;2.30;0.80;;;;;;;;;;6187396;28;20298;-57
2024/02/03 09:39:49;;;;;;;1.13;1.00;;;;;;;;;;6169022;28;20598;-57
2024/02/03 09:42:54;;;;;;;2.78;1.08;;;;;;;;;;6187015;28;20293;-57
2024/02/03 09:46:00;;;;;;;2.58;1.02;;;;;;;;;;6187320;28;20293;-59
2024/02/03 09:49:04;;;;;;;0.95;0.90;;;;;;;;;;6186708;28;20293;-60
2024/02/03 09:52:13;;;;;;;1.05;1.00;;;;;;;;;;6187580;28;20369;-60
2024/02/03 09:55:18;;;;;;;6.70;1.17;;;;;;;;;;6186753;28;20302;-59
2024/02/03 09:58:23;;;;;;;3.65;1.00;;;;;;;;;;6186503;28;20294;-60
2024/02/03 10:01:29;;;;;;;2.15;0.98;;;;;;;;;;6186737;28;20294;-59
2024/02/03 10:04:39;;;;;;;2.10;0.85;;;;;;;;;;6186420;28;20317;-55
2024/02/03 10:07:43;;;;;;;1.27;0.88;;;;;;;;;;6186243;28;20297;-57
2024/02/03 10:10:53;;;;;;;1.85;0.70;;;;;;;;;;6186668;28;20301;-59
2024/02/03 10:14:02;;;;;;;3.25;1.02;;;;;;;;;;6186600;28;20297;-57
2024/02/03 10:17:08;;;;;;;1.27;1.10;;;;;;;;;;6186716;28;20290;-58
2024/02/03 10:20:13;;;;;;;1.00;0.90;;;;;;;;;;6186119;28;20301;-56
2024/02/03 10:23:17;;;;;;;2.17;1.02;;;;;;;;;;6185371;28;20339;-58
2024/02/03 10:26:21;;;;;;;1.00;0.90;;;;;;;;;;6186166;28;20298;-60
2024/02/03 10:29:25;;;;;;;1.27;1.02;;;;;;;;;;6185878;28;20293;-57
2024/02/03 10:32:31;;;;;;;1.90;1.05;;;;;;;;;;6186271;28;20297;-57
2024/02/03 10:35:37;;;;;;;1.85;1.10;;;;;;;;;;6185599;28;20314;-58
2024/02/03 10:38:41;;;;;;;1.33;1.17;;;;;;;;;;6185472;28;20551;-57
2024/02/03 10:41:48;;;;;;;1.15;1.15;;;;;;;;;;6185765;28;20479;-59
2024/02/03 10:44:54;;;;;;;2.92;1.20;;;;;;;;;;6185508;28;20311;-58
2024/02/03 10:48:01;;;;;;;1.20;1.10;;;;;;;;;;6185758;28;20281;-58
2024/02/03 10:51:11;;;;;;;2.53;0.98;;;;;;;;;;6185815;28;20289;-57
2024/02/03 10:54:18;;;;;;;1.35;0.98;;;;;;;;;;6185152;28;20250;-57
2024/02/03 10:57:23;;;;;;;2.88;1.02;;;;;;;;;;6184280;28;20452;-57
2024/02/03 11:00:28;;;;;;;1.48;1.08;;;;;;;;;;6184694;28;20298;-58
2024/02/03 11:03:39;;;;;;;3.55;1.23;;;;;;;;;;6184620;28;20293;-59
2024/02/03 11:06:46;;;;;;;1.83;1.20;;;;;;;;;;6185050;28;20293;-58
2024/02/03 11:09:52;;;;;;;1.85;1.42;;;;;;;;;;6184601;28;20574;-56
2024/02/03 11:13:02;;;;;;;1.48;1.10;;;;;;;;;;6184465;28;20290;-59
2024/02/03 11:16:06;;;;;;;1.10;1.00;;;;;;;;;;6185199;28;20290;-57
2024/02/03 11:19:12;;;;;;;1.00;1.00;;;;;;;;;;6184795;28;20293;-58
2024/02/03 11:22:19;;;;;;;3.28;0.95;;;;;;;;;;6185059;28;20552;-57
2024/02/03 11:25:24;;;;;;;1.08;1.08;;;;;;;;;;6184506;28;20303;-59
2024/02/03 11:28:31;;;;;;;1.10;1.00;;;;;;;;;;6184631;28;20293;-57
2024/02/03 11:31:35;;;;;;;1.75;1.33;;;;;;;;;;6185175;28;20285;-58
2024/02/03 11:34:41;;;;;;;1.00;1.00;;;;;;;;;;6184346;28;20547;-60
2024/02/03 11:37:46;;;;;;;5.15;1.10;;;;;;;;;;6184554;28;20302;-58
2024/02/03 11:40:54;;;;;;;1.30;1.20;;;;;;;;;;6184783;28;20289;-60
2024/02/03 11:43:59;;;;;;;1.88;0.90;;;;;;;;;;6184057;28;20563;-57
2024/02/03 11:47:04;;;;;;;1.10;1.10;;;;;;;;;;6184146;28;20289;-60
2024/02/03 11:50:10;;;;;;;3.42;1.05;;;;;;;;;;6184345;28;20309;-59
2024/02/03 11:53:23;;;;;;;3.78;1.10;;;;;;;;;;6184112;28;20562;-58
2024/02/03 11:56:27;;;;;;;1.83;0.90;;;;;;;;;;6184845;28;20297;-57
2024/02/03 11:59:31;;;;;;;1.05;1.05;;;;;;;;;;6184241;28;20289;-58
2024/02/03 12:02:36;;;;;;;1.00;0.90;;;;;;;;;;6184265;28;20392;-58
2024/02/03 12:05:41;;;;;;;1.75;1.30;;;;;;;;;;6183918;28;20294;-58
2024/02/03 12:08:45;;;;;;;1.40;1.27;;;;;;;;;;6185425;28;20297;-57
2024/02/03 12:11:50;;;;;;;3.35;1.02;;;;;;;;;;6189331;28;20296;-60
2024/02/03 12:14:56;;;;;;;4.05;1.00;;;;;;;;;;6184197;28;20297;-58
2024/02/03 12:18:02;;;;;;;1.65;1.15;;;;;;;;;;6174461;28;20346;-57
2024/02/03 12:21:09;;;;;;;2.80;1.27;;;;;;;;;;6188869;28;20302;-58
2024/02/03 12:24:14;;;;;;;4.20;1.20;;;;;;;;;;6187981;28;20306;-58
2024/02/03 12:27:20;;;;;;;1.58;1.48;;;;;;;;;;6188500;28;20293;-58
2024/02/03 12:30:24;;;;;;;2.60;0.90;;;;;;;;;;6187716;28;20297;-59
2024/02/03 12:33:28;;;;;;;1.52;1.10;;;;;;;;;;6170878;28;20314;-59
2024/02/03 12:36:33;;;;;;;3.40;1.10;;;;;;;;;;6188783;28;20574;-59
2024/02/03 12:39:37;;;;;;;0.90;0.90;;;;;;;;;;6188570;28;20321;-57
2024/02/03 12:42:45;;;;;;;2.95;1.20;;;;;;;;;;6187577;28;20543;-61
2024/02/03 12:45:49;;;;;;;4.95;1.45;;;;;;;;;;6188025;28;20301;-57
2024/02/03 12:48:53;;;;;;;3.40;1.05;;;;;;;;;;6188063;28;20294;-58
2024/02/03 12:51:58;;;;;;;1.25;1.20;;;;;;;;;;6188266;28;20289;-58
2024/02/03 12:55:02;;;;;;;2.97;1.27;;;;;;;;;;6187406;28;20301;-59
2024/02/03 12:58:06;;;;;;;2.50;1.05;;;;;;;;;;6188065;28;20293;-59
2024/02/03 13:01:53;;;;;;;1.38;1.13;;;;;;;;;;6188025;28;20298;-62
2024/02/03 13:04:57;;;;;;;1.05;0.90;;;;;;;;;;6187669;28;20376;-60
2024/02/03 13:08:02;;;;;;;2.92;1.10;;;;;;;;;;6187751;28;20302;-59
2024/02/03 13:11:06;;;;;;;3.78;1.13;;;;;;;;;;6187568;28;20404;-59
2024/02/03 13:14:10;;;;;;;1.55;1.13;;;;;;;;;;6186997;28;20297;-59
2024/02/03 13:17:15;;;;;;;2.50;1.00;;;;;;;;;;6187591;28;20294;-59
2024/02/03 13:20:21;;;;;;;3.13;0.90;;;;;;;;;;6186538;28;20373;-59
2024/02/03 13:23:26;;;;;;;1.92;1.30;;;;;;;;;;6186838;28;20321;-59
2024/02/03 13:26:30;;;;;;;1.95;1.13;;;;;;;;;;6187324;28;20306;-59
2024/02/03 13:29:34;;;;;;;1.10;1.10;;;;;;;;;;6187466;28;20443;-59
2024/02/03 13:32:41;;;;;;;4.32;1.40;;;;;;;;;;6187270;28;20475;-58
2024/02/03 13:35:45;;;;;;;4.22;1.30;;;;;;;;;;6187560;28;20301;-58
2024/02/03 13:38:51;;;;;;;2.88;1.60;;;;;;;;;;6186944;28;20301;-59
2024/02/03 13:41:55;;;;;;;1.30;1.20;;;;;;;;;;6187471;28;20294;-60
2024/02/03 13:44:59;;;;;;;3.30;1.40;;;;;;;;;;6187171;28;20301;-60
2024/02/03 13:48:03;;;;;;;3.63;1.38;;;;;;;;;;6187177;28;20293;-60
2024/02/03 13:51:07;;;;;;;1.08;1.05;;;;;;;;;;6187083;28;20298;-60
2024/02/03 13:54:14;;;;;;;3.97;1.42;;;;;;;;;;6186337;28;20297;-60
2024/02/03 13:57:17;;;;;;;2.85;1.33;;;;;;;;;;6186835;28;20298;-60
2024/02/03 14:00:22;;;;;;;1.85;1.33;;;;;;;;;;6185672;28;20297;-60
2024/02/03 14:03:26;;;;;;;3.90;1.35;;;;;;;;;;6186332;28;20297;-59
2024/02/03 14:06:30;;;;;;;1.90;1.35;;;;;;;;;;6185527;28;20594;-59
2024/02/03 14:09:35;;;;;;;5.60;1.30;;;;;;;;;;6185660;28;20294;-60
2024/02/03 14:12:40;;;;;;;6.10;1.17;;;;;;;;;;6186145;28;20421;-60
2024/02/03 14:15:44;;;;;;;1.98;1.45;;;;;;;;;;6186485;28;20298;-59
2024/02/03 14:18:49;;;;;;;1.13;1.10;;;;;;;;;;6184281;28;20309;-59
2024/02/03 14:21:54;;;;;;;2.53;1.10;;;;;;;;;;6185954;28;20293;-59
2024/02/03 14:24:59;;;;;;;5.68;1.42;;;;;;;;;;6185374;28;20293;-59
2024/02/03 14:28:04;;;;;;;1.67;1.33;;;;;;;;;;6185560;28;20289;-59
2024/02/03 14:31:09;;;;;;;1.90;1.20;;;;;;;;;;6168244;28;20381;-59
2024/02/03 14:34:14;;;;;;;5.15;1.30;;;;;;;;;;6185055;28;20302;-59
2024/02/03 14:37:18;;;;;;;3.40;1.35;;;;;;;;;;6186072;28;20293;-59
2024/02/03 14:40:23;;;;;;;1.85;1.10;;;;;;;;;;6183731;28;20293;-57
2024/02/03 14:43:28;;;;;;;2.70;1.10;;;;;;;;;;6185075;28;20297;-59
2024/02/03 14:46:32;;;;;;;1.27;1.17;;;;;;;;;;6185509;28;20297;-58
2024/02/03 14:49:36;;;;;;;1.55;1.10;;;;;;;;;;6185307;28;20306;-58
2024/02/03 14:52:40;;;;;;;3.88;0.90;;;;;;;;;;6184833;28;20289;-59
2024/02/03 14:55:53;;;;;;;2.17;1.08;;;;;;;;;;6355972;27;20630;-57
2024/02/03 14:58:57;;;;;;;1.38;1.27;;;;;;;;;;6330513;27;20377;-58
2024/02/03 15:02:01;;;;;;;1.08;1.00;;;;;;;;;;6330869;27;20309;-58
2024/02/03 15:05:06;;;;;;;1.25;0.95;;;;;;;;;;6330373;27;20297;-59
2024/02/03 15:08:11;;;;;;;3.35;1.10;;;;;;;;;;6330184;27;20287;-59
2024/02/03 15:11:16;;;;;;;1.10;1.10;;;;;;;;;;6330189;27;20427;-57
2024/02/03 15:14:20;;;;;;;1.38;1.15;;;;;;;;;;6329941;27;20293;-57
2024/02/03 15:17:24;;;;;;;2.28;0.90;;;;;;;;;;6330407;27;20293;-58
2024/02/03 15:20:28;;;;;;;1.42;0.90;;;;;;;;;;6329890;27;20314;-58
2024/02/03 15:23:32;;;;;;;4.07;1.10;;;;;;;;;;6330047;27;20298;-58
2024/02/03 15:26:37;;;;;;;3.65;1.00;;;;;;;;;;6330364;27;20338;-58
2024/02/03 15:29:41;;;;;;;5.47;1.08;;;;;;;;;;6329714;27;20298;-57
2024/02/03 15:32:45;;;;;;;3.40;1.10;;;;;;;;;;6329536;27;20290;-56
2024/02/03 15:35:49;;;;;;;2.33;1.10;;;;;;;;;;6330081;27;20294;-58
2024/02/03 15:38:53;;;;;;;2.03;0.90;;;;;;;;;;6329487;27;20297;-57
2024/02/03 15:42:00;;;;;;;1.90;1.05;;;;;;;;;;6330149;27;20349;-58
2024/02/03 15:45:06;;;;;;;1.88;1.10;;;;;;;;;;6329272;27;20542;-57
2024/02/03 15:48:10;;;;;;;2.22;0.88;;;;;;;;;;6329408;27;20299;-58
2024/02/03 15:51:14;;;;;;;3.15;1.20;;;;;;;;;;6329634;27;20606;-57
2024/02/03 15:54:18;;;;;;;5.85;1.48;;;;;;;;;;6328955;27;20352;-58
2024/02/03 15:57:23;;;;;;;1.08;0.90;;;;;;;;;;6327871;28;20555;-59
2024/02/03 16:00:27;;;;;;;0.73;0.73;;;;;;;;;;6329102;27;20293;-58
2024/02/03 16:03:32;;;;;;;2.38;1.00;;;;;;;;;;6328740;27;20308;-59
2024/02/03 16:06:36;;;;;;;3.10;1.45;;;;;;;;;;6316236;28;20303;-58
2024/02/03 16:09:40;;;;;;;1.75;1.20;;;;;;;;;;6312158;28;20394;-58
2024/02/03 16:12:45;;;;;;;1.50;0.90;;;;;;;;;;6311914;28;20302;-57
2024/02/03 16:15:51;;;;;;;3.90;1.30;;;;;;;;;;6312251;28;20302;-57
2024/02/03 16:18:55;;;;;;;3.60;1.10;;;;;;;;;;6312005;28;20286;-57
2024/02/03 16:21:59;;;;;;;3.03;1.13;;;;;;;;;;6311802;28;20294;-57
2024/02/03 16:25:08;;;;;;;4.53;1.07;;;;;;;;;;6311742;28;20298;-56
2024/02/03 16:28:14;;;;;;;2.15;1.00;;;;;;;;;;6311381;28;20290;-57
2024/02/03 16:31:18;;;;;;;4.53;1.23;;;;;;;;;;6311888;28;20297;-57
2024/02/03 16:34:22;;;;;;;13.65;1.35;;;;;;;;;;6311287;28;20539;-57
2024/02/03 16:37:27;;;;;;;3.60;1.33;;;;;;;;;;6311942;28;20566;-56
2024/02/03 16:40:31;;;;;;;1.10;1.00;;;;;;;;;;6311332;28;20310;-56
2024/02/03 16:43:36;;;;;;;7.93;1.20;;;;;;;;;;6311505;28;20286;-58
2024/02/03 16:46:40;;;;;;;2.13;1.02;;;;;;;;;;6311241;28;20298;-58
2024/02/03 16:49:44;;;;;;;3.60;1.20;;;;;;;;;;6311101;28;20496;-58
2024/02/03 16:52:48;;;;;;;0.85;0.85;;;;;;;;;;6310977;28;20285;-58
2024/02/03 16:55:52;;;;;;;4.90;1.17;;;;;;;;;;6311225;28;20290;-58
2024/02/03 16:58:57;;;;;;;1.80;1.02;;;;;;;;;;6310747;28;20378;-56
2024/02/03 17:02:01;;;;;;;3.43;1.13;;;;;;;;;;6311059;28;20306;-58
2024/02/03 17:05:05;;;;;;;1.47;1.00;;;;;;;;;;6310727;28;20618;-58
2024/02/03 17:08:11;;;;;;;4.77;1.13;;;;;;;;;;6310237;28;20295;-58
2024/02/03 17:11:15;;;;;;;1.00;1.00;;;;;;;;;;6310831;28;20302;-57
2024/02/03 17:14:20;;;;;;;3.57;1.03;;;;;;;;;;6310491;28;20547;-56
2024/02/03 17:17:24;;;;;;;1.45;1.20;;;;;;;;;;6309614;28;20593;-57
2024/02/03 17:20:28;;;;;;;4.73;1.30;;;;;;;;;;6310211;28;20431;-57
2024/02/03 17:23:32;;;;;;;1.85;1.30;;;;;;;;;;6310295;28;20567;-56
2024/02/03 17:26:36;;;;;;;2.25;1.10;;;;;;;;;;6310653;28;20294;-57
2024/02/03 17:29:42;;;;;;;4.18;1.20;;;;;;;;;;6310003;28;20294;-59
2024/02/03 17:32:46;;;;;;;1.00;1.00;;;;;;;;;;6310038;28;20457;-56
2024/02/03 17:35:50;;;;;;;4.43;1.17;;;;;;;;;;6310241;28;20384;-56
2024/02/03 17:38:55;;;;;;;1.80;1.10;;;;;;;;;;6309446;28;20313;-57
2024/02/03 17:41:59;;;;;;;4.57;1.40;;;;;;;;;;6310284;28;20476;-57
2024/02/03 17:45:06;;;;;;;1.20;1.10;;;;;;;;;;6309857;28;20298;-55
2024/02/03 17:48:09;;;;;;;2.63;1.20;;;;;;;;;;6309435;28;20295;-57
2024/02/03 17:51:14;;;;;;;4.60;1.30;;;;;;;;;;6310144;28;20290;-57
2024/02/03 17:54:18;;;;;;;5.18;1.10;;;;;;;;;;6306491;28;20310;-57
2024/02/03 17:57:26;;;;;;;6.03;1.27;;;;;;;;;;6334561;28;20298;-59
2024/02/03 18:00:31;;;;;;;4.80;1.10;;;;;;;;;;6334471;28;20289;-59
2024/02/03 18:03:35;;;;;;;6.37;1.07;;;;;;;;;;6334469;28;20314;-57
2024/02/03 18:06:39;;;;;;;1.20;1.10;;;;;;;;;;6334602;28;20454;-57
2024/02/03 18:09:43;;;;;;;2.77;0.93;;;;;;;;;;6334213;28;20293;-58
2024/02/03 18:12:47;;;;;;;2.20;1.13;;;;;;;;;;6334157;28;20281;-59
2024/02/03 18:15:53;;;;;;;6.97;1.03;;;;;;;;;;6334573;28;20306;-58
2024/02/03 18:18:57;;;;;;;3.10;1.07;;;;;;;;;;6334133;28;20289;-57
2024/02/03 18:22:01;;;;;;;1.50;1.10;;;;;;;;;;6334753;28;20306;-57
2024/02/03 18:25:05;;;;;;;2.83;1.40;;;;;;;;;;6334286;28;20294;-59
2024/02/03 18:28:11;;;;;;;3.90;1.23;;;;;;;;;;6333669;27;20297;-57